PWSweather.com
Personal Weather Stations
Station Observations
2450ARBOR
Round Rock, TX 78681

Round Rock, TX 78681

Lat: 30.535239, Lon: -97.728137

Elevation: 800

Station Type:

High Low Average
Temperature 37.9°F3.3°C 34.3°F1.3°C 35.7°F2.1°C
Dew Point 37.0°F2.8°C 34.0°F1.1°C 34.9°F1.6°C
Winds 4.0 mph 6.4 kmh Calm Calm 1.0 mph S1.6 kmh S
Wind Gusts 5.0 mph8.0 kmh -- 2.0 mph3.2 kmh
Humidity 99% 90% 97%
Pressure 30.27 in1025.1 mb 30.05 in1017.6 mb -
Precipitation 1.96 in49.8 mm - -
Hour Temp Dew Point Humidity Winds Wind Gusts Pressure Precip Precip Rate Daily Precip Total
12:10 AM 38.5°F3.6°C 36.0°F2.2°C 89% 1.0 mph SW1.6 kmh SW 5.0 mph8.0 kmh 30.29 in1025.7 mb 0.00 in0.0 mm 0.00 in0.0 mm 0.00 in0.0 mm
12:19 AM 38.3°F3.5°C 35.0°F1.7°C 89% 1.0 mph SSW1.6 kmh SSW 2.0 mph3.2 kmh 30.29 in1025.7 mb 0.00 in0.0 mm 0.00 in0.0 mm 0.00 in0.0 mm
12:24 AM 38.3°F3.5°C 35.0°F1.7°C 89% 2.0 mph ESE3.2 kmh ESE 2.0 mph3.2 kmh 30.29 in1025.7 mb 0.00 in0.0 mm 0.00 in0.0 mm 0.00 in0.0 mm
01:10 AM 37.9°F3.3°C 35.0°F1.7°C 90% 3.0 mph ENE4.8 kmh ENE 3.0 mph4.8 kmh 30.25 in1024.4 mb 0.00 in0.0 mm 0.00 in0.0 mm 0.00 in0.0 mm
01:21 AM 37.9°F3.3°C 35.0°F1.7°C 90% 2.0 mph S3.2 kmh S 3.0 mph4.8 kmh 30.25 in1024.4 mb 0.00 in0.0 mm 0.00 in0.0 mm 0.00 in0.0 mm
02:01 AM 37.4°F3.0°C 35.0°F1.7°C 90% 3.0 mph WSW4.8 kmh WSW 5.0 mph8.0 kmh 30.25 in1024.4 mb 0.00 in0.0 mm 0.00 in0.0 mm 0.00 in0.0 mm
02:18 AM 37.2°F2.9°C 34.0°F1.1°C 90% 3.0 mph NNW4.8 kmh NNW 3.0 mph4.8 kmh 30.21 in1023.0 mb 0.00 in0.0 mm 0.00 in0.0 mm 0.00 in0.0 mm
02:49 AM 36.9°F2.7°C 34.0°F1.1°C 90% 2.0 mph W3.2 kmh W 2.0 mph3.2 kmh 30.21 in1023.0 mb 0.00 in0.0 mm 0.00 in0.0 mm 0.00 in0.0 mm
03:31 AM 36.7°F2.6°C 34.0°F1.1°C 90% 2.0 mph SW3.2 kmh SW 3.0 mph4.8 kmh 30.27 in1025.1 mb 0.00 in0.0 mm 0.00 in0.0 mm 0.00 in0.0 mm
03:40 AM 36.5°F2.5°C 34.0°F1.1°C 90% 3.0 mph W4.8 kmh W 3.0 mph4.8 kmh 30.27 in1025.1 mb 0.00 in0.0 mm 0.00 in0.0 mm 0.00 in0.0 mm
04:20 AM 35.6°F2.0°C 34.0°F1.1°C 93% 2.0 mph WSW3.2 kmh WSW 3.0 mph4.8 kmh 30.24 in1024.0 mb 0.01 in0.3 mm 0.03 in0.8 mm 0.01 in0.3 mm
04:40 AM 35.2°F1.8°C 34.0°F1.1°C 94% 2.0 mph WSW3.2 kmh WSW 3.0 mph4.8 kmh 30.25 in1024.4 mb 0.02 in0.5 mm 0.03 in0.8 mm 0.02 in0.5 mm
04:50 AM 35.2°F1.8°C 34.0°F1.1°C 94% 1.0 mph SSW1.6 kmh SSW 3.0 mph4.8 kmh 30.25 in1024.4 mb 0.02 in0.5 mm 0.00 in0.0 mm 0.02 in0.5 mm
05:20 AM 35.1°F1.7°C 34.0°F1.1°C 96% 2.0 mph SW3.2 kmh SW 2.0 mph3.2 kmh 30.26 in1024.7 mb 0.04 in1.0 mm 0.04 in1.0 mm 0.05 in1.3 mm
05:31 AM 34.9°F1.6°C 34.0°F1.1°C 96% 2.0 mph NE3.2 kmh NE 3.0 mph4.8 kmh 30.26 in1024.7 mb 0.05 in1.3 mm 0.05 in1.3 mm 0.06 in1.5 mm
05:50 AM 34.9°F1.6°C 34.0°F1.1°C 96% 2.0 mph S3.2 kmh S 3.0 mph4.8 kmh 30.20 in1022.7 mb 0.03 in0.8 mm 0.00 in0.0 mm 0.06 in1.5 mm
06:31 AM 34.5°F1.4°C 34.0°F1.1°C 96% 3.0 mph SW4.8 kmh SW 3.0 mph4.8 kmh 30.23 in1023.7 mb 0.06 in1.5 mm 0.09 in2.3 mm 0.12 in3.0 mm
06:40 AM 34.5°F1.4°C 34.0°F1.1°C 96% 1.0 mph ESE1.6 kmh ESE 3.0 mph4.8 kmh 30.23 in1023.7 mb 0.08 in2.0 mm 0.13 in3.3 mm 0.14 in3.6 mm
06:50 AM 34.3°F1.3°C 34.0°F1.1°C 97% Calm Calm 3.0 mph4.8 kmh 30.23 in1023.7 mb 0.10 in2.5 mm 0.12 in3.0 mm 0.16 in4.1 mm
07:40 AM 34.5°F1.4°C 34.0°F1.1°C 97% 2.0 mph NE3.2 kmh NE 2.0 mph3.2 kmh 30.22 in1023.4 mb 0.23 in5.8 mm 0.78 in19.8 mm 0.38 in9.7 mm
07:51 AM 34.5°F1.4°C 34.0°F1.1°C 98% 1.0 mph NNW1.6 kmh NNW 1.0 mph1.6 kmh 30.19 in1022.4 mb 0.26 in6.6 mm 0.16 in4.1 mm 0.44 in11.2 mm
08:20 AM 34.9°F1.6°C 34.0°F1.1°C 98% Calm Calm -- 30.17 in1021.7 mb 0.18 in4.6 mm 0.00 in0.0 mm 0.48 in12.2 mm
08:30 AM 34.9°F1.6°C 34.0°F1.1°C 98% Calm Calm 1.0 mph1.6 kmh 30.17 in1021.7 mb 0.14 in3.6 mm 0.00 in0.0 mm 0.28 in7.1 mm
08:50 AM 35.1°F1.7°C 35.0°F1.7°C 98% Calm Calm 2.0 mph3.2 kmh 30.17 in1021.7 mb 0.10 in2.5 mm 0.00 in0.0 mm 0.54 in13.7 mm
09:21 AM 35.2°F1.8°C 35.0°F1.7°C 98% Calm Calm -- 30.21 in1023.0 mb 0.12 in3.0 mm 0.04 in1.0 mm 0.60 in15.2 mm
09:31 AM 35.2°F1.8°C 35.0°F1.7°C 98% Calm Calm -- 30.21 in1023.0 mb 0.12 in3.0 mm 0.00 in0.0 mm 0.62 in15.7 mm
10:01 AM 35.4°F1.9°C 35.0°F1.7°C 98% 3.0 mph W4.8 kmh W 3.0 mph4.8 kmh 30.25 in1024.4 mb 0.09 in2.3 mm 0.00 in0.0 mm 0.67 in17.0 mm
10:10 AM 35.4°F1.9°C 35.0°F1.7°C 98% 2.0 mph NNW3.2 kmh NNW 2.0 mph3.2 kmh 30.25 in1024.4 mb 0.10 in2.5 mm 0.07 in1.8 mm 0.68 in17.3 mm
10:31 AM 35.2°F1.8°C 35.0°F1.7°C 98% 2.0 mph S3.2 kmh S 2.0 mph3.2 kmh 30.25 in1024.4 mb 0.10 in2.5 mm 0.00 in0.0 mm 0.74 in18.8 mm
11:01 AM 35.2°F1.8°C 35.0°F1.7°C 98% 3.0 mph SSW4.8 kmh SSW 3.0 mph4.8 kmh 30.26 in1024.7 mb 0.08 in2.0 mm 0.00 in0.0 mm 0.76 in19.3 mm
11:10 AM 35.1°F1.7°C 35.0°F1.7°C 98% Calm Calm -- 30.23 in1023.7 mb 0.10 in2.5 mm 0.13 in3.3 mm 0.80 in20.3 mm
11:31 AM 35.1°F1.7°C 35.0°F1.7°C 98% Calm Calm -- 30.26 in1024.7 mb 0.16 in4.1 mm 0.17 in4.3 mm 0.91 in23.1 mm
12:11 PM 35.1°F1.7°C 35.0°F1.7°C 98% 1.0 mph E1.6 kmh E 2.0 mph3.2 kmh 30.25 in1024.4 mb 0.08 in2.0 mm 0.00 in0.0 mm 0.98 in24.9 mm
12:20 PM 35.2°F1.8°C 35.0°F1.7°C 98% 3.0 mph SW4.8 kmh SW 3.0 mph4.8 kmh 30.25 in1024.4 mb 0.09 in2.3 mm 0.07 in1.8 mm 1.00 in25.4 mm
12:40 PM 35.2°F1.8°C 35.0°F1.7°C 98% Calm Calm -- 30.25 in1024.4 mb 0.10 in2.5 mm 0.03 in0.8 mm 1.04 in26.4 mm
01:01 PM 35.6°F2.0°C 35.0°F1.7°C 98% 1.0 mph S1.6 kmh S 1.0 mph1.6 kmh 30.20 in1022.7 mb 0.06 in1.5 mm 0.00 in0.0 mm 1.04 in26.4 mm
01:31 PM 35.4°F1.9°C 35.0°F1.7°C 98% 2.0 mph ENE3.2 kmh ENE 2.0 mph3.2 kmh 30.20 in1022.7 mb 0.02 in0.5 mm 0.00 in0.0 mm 1.06 in26.9 mm
01:50 PM 35.6°F2.0°C 35.0°F1.7°C 98% 2.0 mph NNE3.2 kmh NNE 2.0 mph3.2 kmh 30.20 in1022.7 mb 0.05 in1.3 mm 0.09 in2.3 mm 1.09 in27.7 mm
02:40 PM 35.6°F2.0°C 35.0°F1.7°C 98% Calm Calm 4.0 mph6.4 kmh 30.13 in1020.3 mb 0.07 in1.8 mm 0.12 in3.0 mm 1.15 in29.2 mm
03:01 PM 35.4°F1.9°C 35.0°F1.7°C 98% 2.0 mph W3.2 kmh W 2.0 mph3.2 kmh 30.15 in1021.0 mb 0.08 in2.0 mm 0.02 in0.5 mm 1.20 in30.5 mm
03:10 PM 35.4°F1.9°C 35.0°F1.7°C 98% 2.0 mph SSE3.2 kmh SSE 2.0 mph3.2 kmh 30.15 in1021.0 mb 0.10 in2.5 mm 0.13 in3.3 mm 1.22 in31.0 mm
03:50 PM 35.4°F1.9°C 35.0°F1.7°C 98% 1.0 mph NNE1.6 kmh NNE 2.0 mph3.2 kmh 30.15 in1021.0 mb 0.21 in5.3 mm 0.17 in4.3 mm 1.39 in35.3 mm
04:40 PM 35.6°F2.0°C 35.0°F1.7°C 98% Calm Calm 2.0 mph3.2 kmh 30.14 in1020.7 mb 0.29 in7.4 mm 0.48 in12.2 mm 1.62 in41.1 mm
05:01 PM 35.8°F2.1°C 35.0°F1.7°C 98% 1.0 mph S1.6 kmh S 2.0 mph3.2 kmh 30.12 in1020.0 mb 0.21 in5.3 mm 0.00 in0.0 mm 1.70 in43.2 mm
05:40 PM 36.3°F2.4°C 36.0°F2.2°C 99% Calm Calm 2.0 mph3.2 kmh 30.10 in1019.3 mb 0.19 in4.8 mm 0.00 in0.0 mm 1.81 in46.0 mm
06:01 PM 36.7°F2.6°C 36.0°F2.2°C 99% 1.0 mph SSE1.6 kmh SSE 1.0 mph1.6 kmh 30.10 in1019.3 mb 0.14 in3.6 mm 0.00 in0.0 mm 1.86 in47.2 mm
06:31 PM 36.9°F2.7°C 37.0°F2.8°C 99% Calm Calm -- 30.05 in1017.6 mb 0.09 in2.3 mm 0.00 in0.0 mm 1.90 in48.3 mm
06:40 PM 37.0°F2.8°C 37.0°F2.8°C 99% Calm Calm -- 30.05 in1017.6 mb 0.10 in2.5 mm 0.07 in1.8 mm 1.91 in48.5 mm
07:10 PM 37.2°F2.9°C 37.0°F2.8°C 99% Calm Calm -- 30.05 in1017.6 mb 0.03 in0.8 mm 0.00 in0.0 mm 1.93 in49.0 mm
07:31 PM 37.2°F2.9°C 37.0°F2.8°C 99% 1.0 mph SE1.6 kmh SE 1.0 mph1.6 kmh 30.05 in1017.6 mb 0.05 in1.3 mm 0.06 in1.5 mm 1.96 in49.8 mm
08:20 PM 36.0°F2.2°C 36.0°F2.2°C 99% 1.0 mph WSW1.6 kmh WSW 1.0 mph1.6 kmh 30.11 in1019.6 mb 0.05 in1.3 mm 0.00 in0.0 mm 1.09 in27.7 mm
09:11 PM 35.4°F1.9°C 35.0°F1.7°C 99% 2.0 mph SW3.2 kmh SW 5.0 mph8.0 kmh 30.11 in1019.6 mb 0.01 in0.3 mm 0.00 in0.0 mm 1.10 in27.9 mm
09:20 PM 35.4°F1.9°C 35.0°F1.7°C 99% 4.0 mph W6.4 kmh W 5.0 mph8.0 kmh 30.11 in1019.6 mb 0.00 in0.0 mm 0.00 in0.0 mm 1.10 in27.9 mm
09:40 PM 35.4°F1.9°C 35.0°F1.7°C 99% 3.0 mph SW4.8 kmh SW 3.0 mph4.8 kmh 30.10 in1019.3 mb 0.00 in0.0 mm 0.00 in0.0 mm 1.10 in27.9 mm
10:11 PM 35.4°F1.9°C 35.0°F1.7°C 99% 2.0 mph S3.2 kmh S 2.0 mph3.2 kmh 30.10 in1019.3 mb 0.00 in0.0 mm 0.00 in0.0 mm 1.10 in27.9 mm
10:40 PM 35.4°F1.9°C 35.0°F1.7°C 99% Calm Calm -- 30.10 in1019.3 mb 0.00 in0.0 mm 0.00 in0.0 mm 1.10 in27.9 mm
10:50 PM 35.4°F1.9°C 35.0°F1.7°C 99% 1.0 mph ESE1.6 kmh ESE 2.0 mph3.2 kmh 30.10 in1019.3 mb 0.00 in0.0 mm 0.00 in0.0 mm 1.10 in27.9 mm
11:41 PM 35.6°F2.0°C 35.0°F1.7°C 99% 1.0 mph W1.6 kmh W 2.0 mph3.2 kmh 30.12 in1020.0 mb 0.01 in0.3 mm 0.07 in1.8 mm 1.10 in27.9 mm
11:50 PM 35.6°F2.0°C 35.0°F1.7°C 99% Calm Calm 1.0 mph1.6 kmh 30.12 in1020.0 mb 0.01 in0.3 mm 0.00 in0.0 mm 1.10 in27.9 mm